createdAt,value
2023-04-18T00:00:45.341Z,7.05
2023-04-18T00:03:16.581Z,6.20
2023-04-18T00:05:48.278Z,5.95
2023-04-18T00:08:21.000Z,5.95
2023-04-18T00:10:50.714Z,10.07
2023-04-18T00:13:20.774Z,5.28
2023-04-18T00:15:50.595Z,6.07
2023-04-18T00:18:20.270Z,6.00
2023-04-18T00:20:49.913Z,6.45
2023-04-18T00:23:22.530Z,5.45
2023-04-18T00:25:52.180Z,4.55
2023-04-18T00:28:21.820Z,5.05
2023-04-18T00:30:51.816Z,6.18
2023-04-18T00:33:21.691Z,5.13
2023-04-18T00:35:54.800Z,6.65
2023-04-18T00:38:27.198Z,5.13
2023-04-18T00:40:56.874Z,5.70
2023-04-18T00:43:27.031Z,6.35
2023-04-18T00:45:57.273Z,5.78
2023-04-18T00:48:27.630Z,5.40
2023-04-18T00:50:57.471Z,6.93
2023-04-18T00:53:29.945Z,6.88
2023-04-18T00:55:59.823Z,5.47
2023-04-18T00:58:29.521Z,6.03
2023-04-18T01:01:00.899Z,5.80
2023-04-18T01:03:30.777Z,8.18
2023-04-18T01:06:01.282Z,7.05
2023-04-18T01:08:33.482Z,5.40
2023-04-18T01:11:03.141Z,6.13
2023-04-18T01:13:32.779Z,6.82
2023-04-18T01:16:02.434Z,7.40
2023-04-18T01:18:32.711Z,6.88
2023-04-18T01:21:02.767Z,5.80
2023-04-18T01:23:35.150Z,6.97
2023-04-18T01:26:07.577Z,5.82
2023-04-18T01:28:39.133Z,6.72
2023-04-18T01:31:10.683Z,6.80
2023-04-18T01:33:40.735Z,5.47
2023-04-18T01:36:10.969Z,7.00
2023-04-18T01:38:40.658Z,6.25
2023-04-18T01:41:12.922Z,6.15
2023-04-18T01:43:42.560Z,5.68
2023-04-18T01:46:12.456Z,6.55
2023-04-18T01:48:42.146Z,6.85
2023-04-18T01:51:11.756Z,5.97
2023-04-18T01:53:41.412Z,5.80
2023-04-18T01:56:14.625Z,8.32
2023-04-18T01:58:44.543Z,6.45
2023-04-18T02:01:15.679Z,7.78
2023-04-18T02:03:45.703Z,6.65
2023-04-18T02:06:15.675Z,5.70
2023-04-18T02:08:45.184Z,6.00
2023-04-18T02:11:17.794Z,5.95
2023-04-18T02:13:48.046Z,5.63
2023-04-18T02:16:17.805Z,6.95
2023-04-18T02:18:47.437Z,5.80
2023-04-18T02:21:17.117Z,6.05
2023-04-18T02:23:46.740Z,6.00
2023-04-18T02:26:18.938Z,10.13
2023-04-18T02:28:48.580Z,5.93
2023-04-18T02:31:18.421Z,5.40
2023-04-18T02:33:49.391Z,6.30
2023-04-18T02:36:19.026Z,7.65
2023-04-18T02:38:48.547Z,5.53
2023-04-18T02:41:20.866Z,6.82
2023-04-18T02:43:50.498Z,5.57
2023-04-18T02:46:21.998Z,6.07
2023-04-18T02:48:52.220Z,8.57
2023-04-18T02:51:26.965Z,7.70
2023-04-18T02:53:58.958Z,5.95
2023-04-18T02:56:40.243Z,6.28
2023-04-18T02:59:22.064Z,7.70
2023-04-18T03:02:14.500Z,5.82
2023-04-18T03:04:51.609Z,7.78
2023-04-18T03:07:21.576Z,7.35
2023-04-18T03:09:52.987Z,6.38
2023-04-18T03:12:31.327Z,7.97
2023-04-18T03:15:01.035Z,7.30
2023-04-18T03:17:31.220Z,6.82
2023-04-18T03:20:01.024Z,6.95
2023-04-18T03:22:31.700Z,8.13
2023-04-18T03:25:02.948Z,6.07
2023-04-18T03:27:55.467Z,6.25
2023-04-18T03:30:26.020Z,6.95
2023-04-18T03:32:58.873Z,6.45
2023-04-18T03:35:28.670Z,6.75
2023-04-18T03:37:59.141Z,6.85
2023-04-18T03:40:33.028Z,6.90
2023-04-18T03:43:11.666Z,6.68
2023-04-18T03:45:41.506Z,6.88
2023-04-18T03:48:11.114Z,8.23
2023-04-18T03:50:45.054Z,6.63
2023-04-18T03:53:14.768Z,9.88
2023-04-18T03:55:44.786Z,8.32
2023-04-18T03:58:23.802Z,7.30
2023-04-18T04:00:54.767Z,6.47
2023-04-18T04:03:25.504Z,7.32
2023-04-18T04:05:55.394Z,10.57
2023-04-18T04:08:28.040Z,9.82
2023-04-18T04:10:58.015Z,8.65
2023-04-18T04:13:32.322Z,10.00
2023-04-18T04:16:02.686Z,6.47
2023-04-18T04:18:32.727Z,8.60
2023-04-18T04:21:06.048Z,7.18
2023-04-18T04:23:46.431Z,9.10
2023-04-18T04:26:27.840Z,6.97
2023-04-18T04:29:08.068Z,8.13
2023-04-18T04:31:37.803Z,7.82
2023-04-18T04:34:09.079Z,9.18
2023-04-18T04:36:41.461Z,9.85
2023-04-18T04:39:13.082Z,8.40
2023-04-18T04:42:04.728Z,7.85
2023-04-18T04:44:46.053Z,9.55
2023-04-18T04:47:16.248Z,8.75
2023-04-18T04:49:46.831Z,9.10
2023-04-18T04:52:16.513Z,10.80
2023-04-18T04:54:46.852Z,9.90
2023-04-18T04:57:18.749Z,7.90
2023-04-18T04:59:51.167Z,9.50
2023-04-18T05:02:23.474Z,9.43
2023-04-18T05:04:53.307Z,11.57
2023-04-18T05:07:23.024Z,9.52
2023-04-18T05:09:53.436Z,9.90
2023-04-18T05:12:22.980Z,8.65
2023-04-18T05:14:55.178Z,8.32
2023-04-18T05:17:24.857Z,9.82
2023-04-18T05:19:54.939Z,9.98
2023-04-18T05:22:24.535Z,11.48
2023-04-18T05:24:54.156Z,7.53
2023-04-18T05:27:23.894Z,10.07
2023-04-18T05:29:56.224Z,7.07
2023-04-18T05:32:25.964Z,7.22
2023-04-18T05:34:56.027Z,9.82
2023-04-18T05:37:25.590Z,11.80
2023-04-18T05:39:55.293Z,7.78
2023-04-18T05:42:24.843Z,5.95
2023-04-18T05:44:57.135Z,7.63
2023-04-18T05:47:28.739Z,7.45
2023-04-18T05:49:58.522Z,8.15
2023-04-18T05:52:28.589Z,9.23
2023-04-18T05:54:58.212Z,6.65
2023-04-18T05:57:27.815Z,8.00
2023-04-18T06:00:00.006Z,6.43
2023-04-18T06:02:29.807Z,6.90
2023-04-18T06:04:59.649Z,7.03
2023-04-18T06:07:29.458Z,7.07
2023-04-18T06:09:59.010Z,5.18
2023-04-18T06:12:28.635Z,7.55
2023-04-18T06:15:00.811Z,6.97
2023-04-18T06:17:30.427Z,5.72
2023-04-18T06:20:00.105Z,5.53
2023-04-18T06:22:29.827Z,5.70
2023-04-18T06:24:59.401Z,5.55
2023-04-18T06:27:31.411Z,5.10
2023-04-18T06:30:04.317Z,4.35
2023-04-18T06:32:34.083Z,5.25
2023-04-18T06:35:03.938Z,5.80
2023-04-18T06:37:33.659Z,5.32
2023-04-18T06:40:03.242Z,4.47
2023-04-18T06:42:32.861Z,4.47
2023-04-18T06:45:06.571Z,4.30
2023-04-18T06:47:36.404Z,4.45
2023-04-18T06:50:06.248Z,5.15
2023-04-18T06:52:40.681Z,5.18
2023-04-18T06:55:11.473Z,4.63
2023-04-18T06:57:41.065Z,3.92
2023-04-18T07:00:14.027Z,3.90
2023-04-18T07:02:44.154Z,3.45
2023-04-18T07:05:13.930Z,3.85
2023-04-18T07:07:43.480Z,3.80
2023-04-18T07:10:13.637Z,3.92
2023-04-18T07:12:43.235Z,4.72
2023-04-18T07:15:15.925Z,4.32
2023-04-18T07:17:45.743Z,4.35
2023-04-18T07:20:15.724Z,4.03
2023-04-18T07:22:46.100Z,4.63
2023-04-18T07:25:15.825Z,4.32
2023-04-18T07:27:45.697Z,4.60
2023-04-18T07:30:18.381Z,3.95
2023-04-18T07:32:48.160Z,4.20
2023-04-18T07:35:17.980Z,5.32
2023-04-18T07:37:47.601Z,4.32
2023-04-18T07:40:17.399Z,5.50
2023-04-18T07:42:46.980Z,3.95
2023-04-18T07:45:19.403Z,4.00
2023-04-18T07:47:49.075Z,4.85
2023-04-18T07:50:18.671Z,4.30
2023-04-18T07:52:49.267Z,4.32
2023-04-18T07:55:18.973Z,4.28
2023-04-18T07:57:50.560Z,4.60
2023-04-18T08:00:23.255Z,4.88
2023-04-18T08:02:53.080Z,4.68
2023-04-18T08:05:22.977Z,4.72
2023-04-18T08:07:53.061Z,5.78
2023-04-18T08:10:23.815Z,4.20
2023-04-18T08:12:53.673Z,4.70
2023-04-18T08:15:27.618Z,4.05
2023-04-18T08:17:57.443Z,5.47
2023-04-18T08:20:27.305Z,4.10
2023-04-18T08:23:06.871Z,3.97
2023-04-18T08:25:39.151Z,4.22
2023-04-18T08:28:08.759Z,3.60
2023-04-18T08:30:41.119Z,3.13
2023-04-18T08:33:10.913Z,3.95
2023-04-18T08:35:40.495Z,3.85
2023-04-18T08:38:10.517Z,4.00
2023-04-18T08:40:40.324Z,3.70
2023-04-18T08:43:12.894Z,3.25
2023-04-18T08:45:45.951Z,3.35
2023-04-18T08:48:16.481Z,4.47
2023-04-18T08:50:46.453Z,3.53
2023-04-18T08:53:17.912Z,6.03
2023-04-18T08:55:50.648Z,3.08
2023-04-18T08:58:23.237Z,3.10
2023-04-18T09:00:56.479Z,3.58
2023-04-18T09:03:41.274Z,3.40
2023-04-18T09:06:12.630Z,3.50
2023-04-18T09:08:43.458Z,3.15
2023-04-18T09:11:29.261Z,3.58
2023-04-18T09:13:59.855Z,4.18
2023-04-18T09:16:47.212Z,3.53
2023-04-18T09:19:18.849Z,3.90
2023-04-18T09:21:49.161Z,3.40
2023-04-18T09:24:21.230Z,3.42
2023-04-18T09:26:54.127Z,3.83
2023-04-18T09:29:25.932Z,3.30
2023-04-18T09:32:01.126Z,3.15
2023-04-18T09:34:34.230Z,3.95
2023-04-18T09:37:10.865Z,3.92
2023-04-18T09:39:41.042Z,3.67
2023-04-18T09:42:10.920Z,3.50
2023-04-18T09:44:41.297Z,4.10
2023-04-18T09:47:13.544Z,3.22
2023-04-18T09:49:43.178Z,4.25
2023-04-18T09:52:12.846Z,3.28
2023-04-18T09:54:45.565Z,4.03
2023-04-18T09:57:16.928Z,3.65
2023-04-18T09:59:48.268Z,3.28
2023-04-18T10:02:22.778Z,3.58
2023-04-18T10:04:53.417Z,3.13
2023-04-18T10:07:23.736Z,3.58
2023-04-18T10:09:53.940Z,3.53
2023-04-18T10:12:24.512Z,5.22
2023-04-18T10:14:54.253Z,3.80
2023-04-18T10:17:28.098Z,3.45
2023-04-18T10:20:17.558Z,3.60
2023-04-18T10:22:47.294Z,3.60
2023-04-18T10:25:17.072Z,4.78
2023-04-18T10:28:00.285Z,4.40
2023-04-18T10:30:45.547Z,4.18
2023-04-18T10:33:31.931Z,4.57
2023-04-18T10:36:03.268Z,4.97
2023-04-18T10:38:32.917Z,4.53
2023-04-18T10:41:17.478Z,4.85
2023-04-18T10:44:02.168Z,3.83
2023-04-18T10:46:32.976Z,6.35
2023-04-18T10:49:17.718Z,3.95
2023-04-18T10:51:50.262Z,4.05
2023-04-18T10:54:22.045Z,5.75
2023-04-18T10:56:55.676Z,4.68
2023-04-18T10:59:26.447Z,5.13
2023-04-18T11:01:58.376Z,4.47
2023-04-18T11:04:28.375Z,5.03
2023-04-18T11:07:01.154Z,4.55
2023-04-18T11:09:31.046Z,4.40
2023-04-18T11:12:07.786Z,4.18
2023-04-18T11:14:43.899Z,4.60
2023-04-18T11:17:20.670Z,5.38
2023-04-18T11:19:50.904Z,7.00
2023-04-18T11:22:23.126Z,4.88
2023-04-18T11:24:53.155Z,5.80
2023-04-18T11:27:27.338Z,5.35
2023-04-18T11:29:57.303Z,5.30
2023-04-18T11:32:27.174Z,4.82
2023-04-18T11:34:57.563Z,5.05
2023-04-18T11:37:29.904Z,4.80
2023-04-18T11:40:00.349Z,4.55
2023-04-18T11:42:31.229Z,6.07
2023-04-18T11:45:00.852Z,5.38
2023-04-18T11:47:31.917Z,4.93
2023-04-18T11:50:02.345Z,4.90
2023-04-18T11:52:35.291Z,5.25
2023-04-18T11:55:13.655Z,5.65
2023-04-18T11:57:43.744Z,4.63
2023-04-18T12:00:15.452Z,4.10
2023-04-18T12:02:46.106Z,4.32
2023-04-18T12:05:27.388Z,3.53
2023-04-18T12:07:59.770Z,3.50
2023-04-18T12:10:30.855Z,3.45
2023-04-18T12:13:01.502Z,3.03
2023-04-18T12:15:32.284Z,4.75
2023-04-18T12:18:02.835Z,3.33
2023-04-18T12:20:46.457Z,3.38
2023-04-18T12:23:34.010Z,3.60
2023-04-18T12:26:07.332Z,3.33
2023-04-18T12:28:37.493Z,3.42
2023-04-18T12:31:08.481Z,3.60
2023-04-18T12:33:38.835Z,3.50
2023-04-18T12:36:09.113Z,3.50
2023-04-18T12:38:38.952Z,4.13
2023-04-18T12:41:11.248Z,3.40
2023-04-18T12:43:40.937Z,3.58
2023-04-18T12:46:10.598Z,4.43
2023-04-18T12:48:40.390Z,3.47
2023-04-18T12:51:10.000Z,3.28
2023-04-18T12:53:39.657Z,3.80
2023-04-18T12:56:12.644Z,4.40
2023-04-18T12:58:42.295Z,3.38
2023-04-18T13:01:11.905Z,4.10
2023-04-18T13:03:42.491Z,4.05
2023-04-18T13:06:12.314Z,4.43
2023-04-18T13:08:42.848Z,3.45
2023-04-18T13:11:15.217Z,4.00
2023-04-18T13:13:44.960Z,3.70
2023-04-18T13:16:14.628Z,3.85
2023-04-18T13:18:44.263Z,4.28
2023-04-18T13:21:13.896Z,4.32
2023-04-18T13:31:16.330Z,5.38
2023-04-18T13:33:46.867Z,5.43
2023-04-18T13:36:16.825Z,5.65
2023-04-18T13:38:46.965Z,3.72
2023-04-18T13:41:16.584Z,4.40
2023-04-18T13:43:46.498Z,5.00
2023-04-18T13:46:18.913Z,4.28
2023-04-18T13:48:48.580Z,5.00
2023-04-18T13:51:18.217Z,5.78
2023-04-18T13:53:47.859Z,6.20
2023-04-18T13:56:17.500Z,4.78
2023-04-18T13:58:47.183Z,4.65
2023-04-18T14:01:19.742Z,4.72
2023-04-18T14:03:49.970Z,5.18
2023-04-18T14:06:19.786Z,4.57
2023-04-18T14:08:49.386Z,4.05
2023-04-18T14:11:19.101Z,4.15
2023-04-18T14:13:48.726Z,4.95
2023-04-18T14:16:21.474Z,4.82
2023-04-18T14:18:51.324Z,7.70
2023-04-18T14:21:21.076Z,4.75
2023-04-18T14:23:50.731Z,4.82
2023-04-18T14:26:20.370Z,4.07
2023-04-18T14:28:50.414Z,4.30
2023-04-18T14:31:22.943Z,4.45
2023-04-18T14:33:52.724Z,4.43
2023-04-18T14:36:22.411Z,4.90
2023-04-18T14:38:52.060Z,5.38
2023-04-18T14:41:21.824Z,8.27
2023-04-18T14:48:52.915Z,6.30
2023-04-18T14:51:22.619Z,4.93
2023-04-18T14:53:55.794Z,5.20
2023-04-18T14:56:25.635Z,5.10
2023-04-18T14:58:55.405Z,4.45
2023-04-18T15:01:25.143Z,5.82
2023-04-18T15:03:57.529Z,4.93
2023-04-18T15:06:27.497Z,4.40
2023-04-18T16:26:13.527Z,8.02
2023-04-18T16:28:43.183Z,7.10
2023-04-18T17:18:37.964Z,10.70
2023-04-18T17:21:07.753Z,7.45
2023-04-18T17:23:37.402Z,8.60
2023-04-18T17:26:07.031Z,11.63
2023-04-18T17:28:36.826Z,7.53
2023-04-18T17:31:06.793Z,7.72
2023-04-18T17:33:38.987Z,8.27
2023-04-18T17:36:08.732Z,10.43
2023-04-18T17:38:38.279Z,6.70
2023-04-18T17:41:08.046Z,11.07
2023-04-18T17:43:37.644Z,6.20
2023-04-18T17:46:07.528Z,7.82
2023-04-18T17:48:39.812Z,7.10
2023-04-18T17:51:09.631Z,7.28
2023-04-18T17:53:39.196Z,7.65
2023-04-18T17:56:08.966Z,7.55
2023-04-18T17:58:38.870Z,8.35
2023-04-18T18:01:16.483Z,7.38
2023-04-18T18:03:49.190Z,10.10
2023-04-18T18:06:18.946Z,7.00
2023-04-18T18:08:48.561Z,9.35
2023-04-18T18:11:18.221Z,6.53
2023-04-18T18:13:47.873Z,6.55
2023-04-18T18:16:17.515Z,8.00
2023-04-18T18:18:49.805Z,8.63
2023-04-18T18:21:19.541Z,7.68
2023-04-18T18:23:49.069Z,8.73
2023-04-18T18:26:18.692Z,6.55
2023-04-18T18:28:48.284Z,8.60
2023-04-18T18:31:19.947Z,8.73
2023-04-18T18:33:52.289Z,7.72
2023-04-18T18:36:21.938Z,6.82
2023-04-18T18:38:51.540Z,6.88
2023-04-18T18:41:21.198Z,8.25
2023-04-18T18:43:50.774Z,10.20
2023-04-18T18:46:20.783Z,6.53
2023-04-18T18:48:53.110Z,9.18
2023-04-18T18:51:23.940Z,7.78
2023-04-18T18:53:53.655Z,7.40
2023-04-18T18:56:23.237Z,6.90
2023-04-18T18:58:52.829Z,7.32
2023-04-18T19:01:23.526Z,11.60
2023-04-18T19:03:55.919Z,9.65
2023-04-18T19:06:26.611Z,8.48
2023-04-18T19:08:56.257Z,8.23
2023-04-18T19:11:27.056Z,8.80
2023-04-18T19:13:56.862Z,9.38
2023-04-18T19:16:26.622Z,8.27
2023-04-18T19:18:59.036Z,8.18
2023-04-18T19:21:28.866Z,8.15
2023-04-18T19:23:58.440Z,9.27
2023-04-18T19:26:28.114Z,7.22
2023-04-18T19:28:57.785Z,10.73
2023-04-18T19:31:27.404Z,8.30
2023-04-18T19:33:59.627Z,8.73
2023-04-18T19:36:29.289Z,13.07
2023-04-18T19:38:58.854Z,6.97
2023-04-18T19:41:28.756Z,9.00
2023-04-18T19:43:58.366Z,6.82
2023-04-18T19:46:27.994Z,9.45
2023-04-18T19:49:00.318Z,7.68
2023-04-18T19:51:30.364Z,8.23
2023-04-18T19:54:00.121Z,7.60
2023-04-18T19:56:29.737Z,9.23
2023-04-18T19:58:59.364Z,11.65
2023-04-18T20:01:28.974Z,7.57
2023-04-18T20:04:01.830Z,7.43
2023-04-18T20:06:31.695Z,7.35
2023-04-18T20:09:01.284Z,7.63
2023-04-18T20:11:30.940Z,8.90
2023-04-18T20:14:00.870Z,8.27
2023-04-18T20:16:30.710Z,10.15
2023-04-18T20:19:05.800Z,8.48
2023-04-18T20:21:35.926Z,7.43
2023-04-18T20:24:05.805Z,8.35
2023-04-18T20:26:35.440Z,7.72
2023-04-18T20:29:05.146Z,7.30
2023-04-18T20:31:35.217Z,6.82
2023-04-18T20:34:07.516Z,7.03
2023-04-18T20:36:41.628Z,8.57
2023-04-18T20:39:12.990Z,6.63
2023-04-18T20:41:46.811Z,7.18
2023-04-18T20:44:16.597Z,6.47
2023-04-18T20:46:46.255Z,6.93
2023-04-18T20:49:18.570Z,7.35
2023-04-18T20:51:48.283Z,6.57
2023-04-18T20:54:17.995Z,8.18
2023-04-18T20:56:47.707Z,6.63
2023-04-18T20:59:17.290Z,8.25
2023-04-18T21:01:47.118Z,6.90
2023-04-18T21:04:19.684Z,5.45
2023-04-18T21:06:49.600Z,5.90
2023-04-18T21:09:19.180Z,6.00
2023-04-18T21:11:48.841Z,8.27
2023-04-18T21:14:18.425Z,6.03
2023-04-18T21:16:48.032Z,5.50
2023-04-18T21:19:20.247Z,5.78
2023-04-18T21:21:49.884Z,6.28
2023-04-18T21:24:19.489Z,6.45
2023-04-18T21:26:49.068Z,7.97
2023-04-18T21:29:18.700Z,5.93
2023-04-18T21:31:49.596Z,6.20
2023-04-18T21:34:21.913Z,4.57
2023-04-18T21:36:51.637Z,7.25
2023-04-18T21:39:21.190Z,6.22
2023-04-18T21:41:50.825Z,5.43
2023-04-18T21:44:20.946Z,8.77
2023-04-18T21:46:50.527Z,5.82
2023-04-18T21:49:22.808Z,4.75
2023-04-18T21:51:52.645Z,4.55
2023-04-18T21:54:22.210Z,4.88
2023-04-18T21:56:51.804Z,5.82
2023-04-18T21:59:21.558Z,5.45
2023-04-18T22:01:51.179Z,4.82
2023-04-18T22:04:26.834Z,4.20
2023-04-18T22:06:57.012Z,6.07
2023-04-18T22:09:26.611Z,4.93
2023-04-18T22:11:57.174Z,5.32
2023-04-18T22:14:28.392Z,5.78
2023-04-18T22:16:59.036Z,4.40
2023-04-18T22:19:31.499Z,4.80
2023-04-18T22:22:01.248Z,4.78
2023-04-18T22:24:30.865Z,5.72
2023-04-18T22:27:01.084Z,5.32
2023-04-18T22:29:30.786Z,5.88
2023-04-18T22:32:00.405Z,5.68
2023-04-18T22:34:32.624Z,5.43
2023-04-18T22:37:02.290Z,6.05
2023-04-18T22:39:31.982Z,5.05
2023-04-18T22:42:01.545Z,4.78
2023-04-18T22:44:31.130Z,5.18
2023-04-18T22:47:00.968Z,4.70
2023-04-18T22:49:33.286Z,5.00
2023-04-18T22:52:02.943Z,5.90
2023-04-18T22:54:32.633Z,6.07
2023-04-18T22:57:02.455Z,5.15
2023-04-18T22:59:32.022Z,5.18
2023-04-18T23:02:01.701Z,6.78
2023-04-18T23:04:35.182Z,5.80
2023-04-18T23:07:04.993Z,5.13
2023-04-18T23:09:35.989Z,5.68
2023-04-18T23:12:05.623Z,5.25
2023-04-18T23:14:35.144Z,6.88
2023-04-18T23:17:04.759Z,5.35
2023-04-18T23:19:37.010Z,5.13
2023-04-18T23:22:06.675Z,5.53
2023-04-18T23:24:36.249Z,5.28
2023-04-18T23:27:06.063Z,7.43
2023-04-18T23:29:39.257Z,9.05
2023-04-18T23:32:08.968Z,5.57
2023-04-18T23:34:41.164Z,5.65
2023-04-18T23:37:11.319Z,8.48
2023-04-18T23:39:41.135Z,7.05
2023-04-18T23:42:10.707Z,6.10
2023-04-18T23:44:40.309Z,5.25
2023-04-18T23:47:09.961Z,6.30
2023-04-18T23:49:42.196Z,5.85
2023-04-18T23:52:11.822Z,6.25
2023-04-18T23:54:41.492Z,6.57
2023-04-18T23:57:11.146Z,5.60
2023-04-18T23:59:40.763Z,5.03
